Ryder, ND

1:57 AM CDT on June 02, 2015 (GMT -0500)
Downtown Garrison, ND | | Change Station
CLOSE
Current Station
Personal Weather Station
Location: Garrison, ND
Elevation: 1929 ft
Nearby Weather Stations

Elev 1929 ft 47.65 °N, 101.41 °W | Updated 1 minute ago

Mostly Cloudy
Mostly Cloudy
60.6 °F
Feels Like 60.6 °F
N
3.2
Wind Variable Wind from SE

Today
High -- | Low -- °F
--% Chance of Precip.
Yesterday
High -- | Low -- °F
Precip. -- in
5:52 AM 9:38 PM
Full, 100% visible
Pressure 29.78 in
Visibility 10.0 miles
Clouds Clear
Dew Point 57 °F
Humidity 89%
Rainfall 0.00 in
Snow Depth Not available.
UV 0 out of 12
Pollen 8.30 out of 12
Air Quality Not available.
Flu Activity Sporadic
METAR KMOT 020554Z AUTO 33006KT 10SM CLR 16/14 A2979 RMK AO2 SLP083 60000 T01560144 10272 20156 402890100 50005

More Conditions Fewer Conditions

Pressure 29.78 in
Visibility 10.0 miles
Clouds Clear
Dew Point 57 °F
Humidity 89%
Rainfall 0.00 in
Snow Depth Not available.
UV 0 out of 12
Pollen 8.30 out of 12
Air Quality Not available.
Flu Activity Sporadic
METAR KMOT 020554Z AUTO 33006KT 10SM CLR 16/14 A2979 RMK AO2 SLP083 60000 T01560144 10272 20156 402890100 50005

More Conditions Fewer Conditions

10-Day Weather Forecast

Almanac

Astronomy

Jun. 02, 2015 Rise Set
Actual Time
Civil Twilight
Nautical Twilight
Astronomical Twilight
Moon
Length of Visible Light
Length of Day
Tomorrow will be .
, % of the Moon is Illuminated

Today's Extremes

State Highs State Lows

Community

WunderPhotos

Upload Photos

1,825,918 photos uploaded!

WunderBlogs® & News

Nearby

Air Quality

  Air Quality AQ Index Pollutant
Not available.

Snow Depth

Station Depth Elevation

Earthquake Activity

City Distance Mag. Time & Date
Minimum magnitude displayed is 2.5.

Coastal Water Temperatures

Place Temperature

Stations

Nearby Weather Stations

Station Location Temp. Windchill Dew Point Humidity Wind Precip. Elev Updated Type